createdAt,value
2022-10-28T00:01:16.237Z,56.35
2022-10-28T00:03:46.858Z,56.50
2022-10-28T00:06:18.396Z,56.62
2022-10-28T00:08:46.885Z,56.72
2022-10-28T00:11:17.430Z,56.68
2022-10-28T00:13:46.534Z,56.80
2022-10-28T00:16:18.781Z,56.74
2022-10-28T00:18:47.693Z,56.95
2022-10-28T00:21:18.282Z,57.37
2022-10-28T00:23:46.652Z,57.89
2022-10-28T00:26:16.974Z,57.66
2022-10-28T00:28:46.839Z,57.68
2022-10-28T00:31:18.831Z,57.60
2022-10-28T00:33:47.360Z,57.66
2022-10-28T00:36:18.138Z,57.87
2022-10-28T00:38:51.864Z,57.93
2022-10-28T00:41:22.748Z,58.29
2022-10-28T00:43:53.126Z,58.58
2022-10-28T00:46:29.722Z,58.29
2022-10-28T00:49:02.854Z,58.24
2022-10-28T00:51:32.389Z,58.06
2022-10-28T00:54:00.532Z,58.11
2022-10-28T00:56:33.458Z,58.12
2022-10-28T00:59:05.436Z,58.17
2022-10-28T01:01:34.998Z,58.24
2022-10-28T01:04:03.658Z,58.35
2022-10-28T01:06:31.862Z,58.41
2022-10-28T01:09:00.365Z,58.44
2022-10-28T01:11:54.734Z,58.26
2022-10-28T01:14:33.923Z,58.35
2022-10-28T01:17:14.121Z,58.39
2022-10-28T01:20:24.218Z,59.12
2022-10-28T01:22:59.303Z,59.40
2022-10-28T01:25:40.250Z,59.61
2022-10-28T01:28:27.651Z,59.72
2022-10-28T01:31:15.893Z,59.46
2022-10-28T01:33:51.714Z,59.31
2022-10-28T01:36:27.314Z,59.54
2022-10-28T01:39:02.330Z,59.43
2022-10-28T01:41:34.492Z,59.58
2022-10-28T01:44:08.415Z,59.38
2022-10-28T01:46:40.977Z,59.46
2022-10-28T01:49:15.238Z,59.40
2022-10-28T01:51:47.042Z,59.41
2022-10-28T01:54:19.743Z,59.02
2022-10-28T01:56:49.450Z,58.77
2022-10-28T01:59:21.480Z,58.46
2022-10-28T02:01:51.035Z,58.29
2022-10-28T02:04:19.151Z,58.32
2022-10-28T02:06:50.501Z,58.22
2022-10-28T02:09:29.561Z,57.86
2022-10-28T02:12:30.865Z,57.78
2022-10-28T02:15:24.376Z,57.74
2022-10-28T02:18:03.482Z,57.81
2022-10-28T02:20:41.734Z,57.95
2022-10-28T02:23:18.555Z,58.03
2022-10-28T02:25:53.569Z,58.24
2022-10-28T02:28:26.097Z,58.37
2022-10-28T02:31:00.280Z,58.57
2022-10-28T02:33:32.308Z,58.61
2022-10-28T02:36:04.794Z,58.80
2022-10-28T02:38:35.838Z,58.60
2022-10-28T02:41:09.310Z,58.48
2022-10-28T02:43:39.289Z,58.45
2022-10-28T02:46:09.221Z,58.42
2022-10-28T02:48:43.469Z,58.29
2022-10-28T02:51:15.089Z,58.44
2022-10-28T02:53:51.845Z,58.30
2022-10-28T02:56:21.581Z,58.29
2022-10-28T02:58:50.031Z,58.34
2022-10-28T03:01:18.331Z,58.35
2022-10-28T03:03:47.798Z,58.53
2022-10-28T03:06:15.823Z,58.44
2022-10-28T03:08:43.858Z,58.44
2022-10-28T03:11:11.857Z,58.49
2022-10-28T03:13:39.854Z,58.42
2022-10-28T03:16:07.849Z,58.43
2022-10-28T03:18:35.851Z,58.38
2022-10-28T03:21:05.348Z,58.35
2022-10-28T03:23:33.315Z,58.52
2022-10-28T03:26:01.337Z,58.53
2022-10-28T03:28:29.346Z,58.71
2022-10-28T03:30:57.328Z,58.82
2022-10-28T03:33:25.330Z,59.08
2022-10-28T03:35:53.377Z,59.14
2022-10-28T03:38:22.752Z,59.18
2022-10-28T03:40:50.998Z,58.96
2022-10-28T03:43:19.255Z,58.91
2022-10-28T03:45:47.255Z,58.91
2022-10-28T03:48:15.267Z,58.99
2022-10-28T03:50:43.271Z,59.03
2022-10-28T03:53:11.345Z,59.19
2022-10-28T03:55:40.692Z,59.36
2022-10-28T03:58:08.719Z,59.48
2022-10-28T04:00:36.727Z,59.54
2022-10-28T04:03:04.785Z,59.45
2022-10-28T04:05:32.730Z,59.42
2022-10-28T04:08:00.730Z,59.44
2022-10-28T04:10:28.713Z,59.41
2022-10-28T04:13:02.220Z,59.41
2022-10-28T04:15:30.587Z,59.74
2022-10-28T04:17:58.767Z,59.77
2022-10-28T04:20:27.602Z,59.82
2022-10-28T04:22:57.215Z,59.99
2022-10-28T04:25:26.769Z,60.18
2022-10-28T04:27:55.234Z,60.25
2022-10-28T04:30:25.412Z,60.38
2022-10-28T04:32:53.633Z,60.36
2022-10-28T04:35:21.631Z,60.35
2022-10-28T04:37:49.582Z,60.31
2022-10-28T04:40:17.895Z,60.27
2022-10-28T04:42:45.877Z,60.24
2022-10-28T04:45:15.654Z,60.30
2022-10-28T04:47:45.000Z,60.32
2022-10-28T04:50:13.140Z,60.23
2022-10-28T04:52:41.102Z,60.13
2022-10-28T04:55:09.891Z,60.18
2022-10-28T04:57:37.893Z,60.15
2022-10-28T05:00:06.937Z,60.25
2022-10-28T05:02:35.054Z,60.19
2022-10-28T05:05:04.745Z,60.29
2022-10-28T05:07:32.798Z,60.35
2022-10-28T05:10:00.741Z,60.51
2022-10-28T05:12:28.790Z,60.59
2022-10-28T05:14:56.971Z,60.59
2022-10-28T05:17:24.997Z,60.67
2022-10-28T05:19:53.010Z,61.21
2022-10-28T05:22:22.338Z,62.39
2022-10-28T05:24:50.337Z,61.92
2022-10-28T05:27:18.303Z,61.99
2022-10-28T05:29:46.297Z,62.24
2022-10-28T05:32:14.296Z,62.18
2022-10-28T05:34:42.291Z,62.33
2022-10-28T05:37:10.304Z,62.25
2022-10-28T05:39:39.660Z,62.15
2022-10-28T05:42:07.691Z,62.18
2022-10-28T05:44:35.637Z,62.09
2022-10-28T05:47:03.650Z,61.89
2022-10-28T05:49:31.823Z,61.86
2022-10-28T05:51:59.814Z,61.79
2022-10-28T05:54:27.930Z,61.73
2022-10-28T05:56:57.239Z,61.50
2022-10-28T05:59:25.218Z,61.41
2022-10-28T06:01:53.235Z,61.76
2022-10-28T06:04:21.278Z,61.69
2022-10-28T06:06:49.334Z,61.79
2022-10-28T06:09:17.351Z,61.76
2022-10-28T06:11:43.779Z,61.64
2022-10-28T06:14:13.132Z,61.77
2022-10-28T06:16:42.378Z,61.95
2022-10-28T06:19:10.390Z,61.86
2022-10-28T06:21:38.346Z,61.76
2022-10-28T06:24:09.847Z,61.60
2022-10-28T06:26:40.434Z,61.59
2022-10-28T06:29:10.690Z,61.57
2022-10-28T06:31:40.478Z,61.45
2022-10-28T06:34:08.822Z,61.47
2022-10-28T06:36:37.255Z,61.50
2022-10-28T06:39:06.231Z,61.70
2022-10-28T06:41:34.701Z,61.71
2022-10-28T06:44:02.769Z,61.57
2022-10-28T06:46:31.161Z,61.64
2022-10-28T06:49:03.213Z,61.60
2022-10-28T06:51:32.410Z,61.55
2022-10-28T06:54:00.414Z,61.51
2022-10-28T06:56:28.420Z,61.55
2022-10-28T06:58:56.735Z,61.47
2022-10-28T07:01:24.827Z,61.39
2022-10-28T07:03:52.962Z,61.30
2022-10-28T07:06:22.341Z,61.27
2022-10-28T07:08:50.411Z,61.25
2022-10-28T07:11:19.038Z,61.25
2022-10-28T07:13:48.967Z,61.31
2022-10-28T07:16:17.247Z,61.27
2022-10-28T07:18:45.234Z,61.33
2022-10-28T07:21:14.388Z,61.40
2022-10-28T07:23:43.748Z,61.38
2022-10-28T07:26:11.814Z,61.41
2022-10-28T07:28:39.837Z,61.44
2022-10-28T07:31:07.952Z,61.54
2022-10-28T07:33:36.012Z,61.43
2022-10-28T07:36:05.003Z,61.07
2022-10-28T07:38:33.338Z,60.89
2022-10-28T07:41:06.650Z,60.80
2022-10-28T07:43:37.192Z,60.53
2022-10-28T07:46:05.655Z,60.41
2022-10-28T07:48:34.442Z,60.33
2022-10-28T07:51:02.923Z,60.19
2022-10-28T07:53:30.934Z,60.20
2022-10-28T07:55:59.708Z,60.64
2022-10-28T07:58:29.513Z,61.07
2022-10-28T08:00:57.616Z,61.39
2022-10-28T08:03:31.350Z,61.37
2022-10-28T08:06:03.639Z,61.15
2022-10-28T08:08:31.717Z,60.10
2022-10-28T08:10:59.741Z,58.43
2022-10-28T08:13:29.140Z,56.46
2022-10-28T08:15:57.200Z,56.48
2022-10-28T08:18:30.012Z,55.17
2022-10-28T08:23:33.996Z,52.67
2022-10-28T08:26:02.021Z,50.76
2022-10-28T08:28:31.592Z,51.12
2022-10-28T08:31:09.698Z,49.22
2022-10-28T08:33:39.068Z,47.27
2022-10-28T08:36:07.989Z,46.95
2022-10-28T08:38:36.006Z,47.38
2022-10-28T08:41:15.714Z,47.15
2022-10-28T08:44:01.863Z,45.86
2022-10-28T08:46:44.348Z,45.52
2022-10-28T08:49:17.365Z,45.06
2022-10-28T08:51:54.036Z,44.54
2022-10-28T08:54:25.479Z,44.99
2022-10-28T08:56:56.200Z,44.57
2022-10-28T08:59:30.466Z,43.98
2022-10-28T09:02:00.940Z,43.88
2022-10-28T09:04:36.912Z,43.73
2022-10-28T09:07:06.103Z,42.74
2022-10-28T09:09:34.656Z,43.53
2022-10-28T09:12:18.511Z,43.67
2022-10-28T09:15:05.166Z,43.23
2022-10-28T09:17:44.061Z,43.15
2022-10-28T09:20:19.424Z,42.77
2022-10-28T09:22:56.680Z,41.99
2022-10-28T09:25:32.504Z,42.06
2022-10-28T09:28:17.628Z,42.08
2022-10-28T09:30:59.340Z,42.71
2022-10-28T09:33:43.891Z,42.65
2022-10-28T09:36:17.845Z,41.59
2022-10-28T09:38:46.968Z,41.65
2022-10-28T09:41:19.648Z,41.00
2022-10-28T09:43:52.695Z,41.23
2022-10-28T09:46:24.930Z,41.38
2022-10-28T09:48:56.183Z,42.17
2022-10-28T09:51:32.376Z,43.12
2022-10-28T09:54:01.649Z,43.16
2022-10-28T09:56:31.039Z,43.42
2022-10-28T09:59:02.756Z,43.94
2022-10-28T10:01:34.934Z,44.28
2022-10-28T10:04:03.756Z,44.83
2022-10-28T10:06:36.396Z,44.83
2022-10-28T10:09:04.970Z,45.06
2022-10-28T10:11:37.411Z,44.45
2022-10-28T10:14:09.332Z,44.22
2022-10-28T10:16:43.741Z,44.38
2022-10-28T10:19:12.356Z,45.22
2022-10-28T10:21:46.009Z,42.95
2022-10-28T10:24:31.032Z,43.38
2022-10-28T10:27:01.511Z,43.55
2022-10-28T10:29:30.677Z,43.77
2022-10-28T10:32:17.870Z,43.59
2022-10-28T10:34:51.217Z,42.81
2022-10-28T10:37:22.222Z,43.03
2022-10-28T10:40:06.338Z,43.35
2022-10-28T10:42:42.503Z,43.55
2022-10-28T10:45:26.009Z,43.84
2022-10-28T10:48:14.348Z,43.48
2022-10-28T10:50:44.653Z,43.33
2022-10-28T10:53:22.804Z,43.48
2022-10-28T10:55:53.581Z,43.73
2022-10-28T10:58:24.559Z,43.16
2022-10-28T11:00:54.904Z,42.69
2022-10-28T11:03:26.917Z,41.65
2022-10-28T11:06:18.208Z,40.84
2022-10-28T11:08:45.348Z,41.20
2022-10-28T11:11:15.348Z,41.29
2022-10-28T11:13:46.161Z,41.52
2022-10-28T11:16:23.135Z,42.33
2022-10-28T11:18:54.092Z,42.81
2022-10-28T11:21:43.102Z,42.72
2022-10-28T11:24:40.332Z,43.03
2022-10-28T11:27:17.134Z,43.55
2022-10-28T11:29:46.664Z,44.02
2022-10-28T11:32:27.261Z,44.12
2022-10-28T11:35:24.343Z,44.53
2022-10-28T11:38:03.590Z,44.60
2022-10-28T11:40:40.530Z,44.94
2022-10-28T11:43:20.703Z,45.16
2022-10-28T11:45:55.440Z,44.98
2022-10-28T11:48:37.984Z,44.29
2022-10-28T11:51:19.303Z,44.17
2022-10-28T11:54:10.105Z,43.83
2022-10-28T11:56:40.623Z,44.08
2022-10-28T11:59:56.417Z,43.84
2022-10-28T12:02:38.301Z,44.19
2022-10-28T12:05:13.040Z,44.48
2022-10-28T12:08:01.828Z,43.96
2022-10-28T12:10:42.040Z,44.45
2022-10-28T12:13:21.899Z,44.06
2022-10-28T12:15:57.296Z,43.55
2022-10-28T12:18:30.750Z,43.32
2022-10-28T12:21:03.626Z,43.09
2022-10-28T12:23:36.031Z,43.16
2022-10-28T12:26:08.264Z,43.37
2022-10-28T12:28:42.335Z,43.67
2022-10-28T12:31:18.835Z,43.64
2022-10-28T12:33:49.370Z,43.77
2022-10-28T12:36:33.648Z,43.97
2022-10-28T12:39:07.737Z,44.20
2022-10-28T12:41:48.625Z,43.94
2022-10-28T12:44:20.780Z,44.22
2022-10-28T12:47:01.300Z,44.37
2022-10-28T12:49:49.202Z,44.42
2022-10-28T12:52:28.092Z,44.05
2022-10-28T12:55:03.659Z,43.89
2022-10-28T12:57:35.458Z,44.29
2022-10-28T13:00:07.917Z,44.19
2022-10-28T13:02:42.385Z,44.09
2022-10-28T13:05:20.244Z,44.22
2022-10-28T13:08:18.160Z,44.28
2022-10-28T13:10:56.997Z,44.37
2022-10-28T13:13:39.150Z,44.21
2022-10-28T13:16:37.987Z,44.33
2022-10-28T13:19:26.044Z,44.65
2022-10-28T13:25:14.885Z,45.08
2022-10-28T13:27:44.541Z,45.55
2022-10-28T13:30:18.126Z,45.47
2022-10-28T13:32:46.812Z,45.60
2022-10-28T13:35:21.966Z,45.77
2022-10-28T13:37:52.338Z,45.90
2022-10-28T13:40:46.308Z,45.99
2022-10-28T13:43:22.007Z,46.51
2022-10-28T13:45:53.178Z,46.47
2022-10-28T13:48:48.651Z,47.35
2022-10-28T13:51:35.342Z,46.93
2022-10-28T13:54:03.389Z,47.28
2022-10-28T13:56:45.847Z,47.41
2022-10-28T13:59:26.958Z,47.36
2022-10-28T14:02:07.620Z,47.40
2022-10-28T14:04:56.049Z,47.41
2022-10-28T14:07:27.910Z,47.51
2022-10-28T14:09:59.582Z,47.55
2022-10-28T14:12:31.258Z,47.54
2022-10-28T14:15:05.475Z,47.60
2022-10-28T14:17:39.312Z,47.34
2022-10-28T14:20:21.243Z,47.42
2022-10-28T14:22:49.372Z,47.10
2022-10-28T14:25:54.760Z,47.22
2022-10-28T14:28:50.970Z,47.83
2022-10-28T14:31:40.411Z,47.57
2022-10-28T14:34:40.498Z,47.95
2022-10-28T14:37:27.431Z,48.19
2022-10-28T14:40:15.002Z,48.53
2022-10-28T14:43:00.490Z,48.41
2022-10-28T14:45:37.839Z,48.90
2022-10-28T14:48:30.882Z,48.71
2022-10-28T14:51:01.604Z,49.08
2022-10-28T14:53:33.038Z,48.95
2022-10-28T14:56:04.427Z,48.99
2022-10-28T14:58:37.782Z,48.98
2022-10-28T15:01:21.422Z,48.86
2022-10-28T15:03:53.402Z,49.18
2022-10-28T15:06:31.320Z,49.16
2022-10-28T15:09:07.042Z,49.34
2022-10-28T15:11:35.617Z,49.43
2022-10-28T15:14:25.058Z,49.67
2022-10-28T15:16:53.112Z,49.58
2022-10-28T15:19:24.527Z,49.73
2022-10-28T15:22:13.853Z,49.77
2022-10-28T15:24:46.196Z,50.01
2022-10-28T15:27:23.244Z,50.18
2022-10-28T15:29:51.748Z,50.08
2022-10-28T15:32:36.397Z,50.43
2022-10-28T15:35:39.043Z,50.75
2022-10-28T15:38:26.945Z,51.01
2022-10-28T15:40:55.137Z,51.05
2022-10-28T15:43:25.951Z,51.62
2022-10-28T15:45:53.995Z,51.62
2022-10-28T15:48:25.157Z,51.46
2022-10-28T15:51:16.970Z,51.68
2022-10-28T15:53:45.655Z,51.56
2022-10-28T15:56:23.145Z,51.40
2022-10-28T15:59:04.277Z,51.14
2022-10-28T16:01:41.150Z,51.40
2022-10-28T16:04:44.888Z,51.23
2022-10-28T16:07:14.431Z,51.32
2022-10-28T16:09:46.567Z,51.37
2022-10-28T16:12:17.461Z,51.68
2022-10-28T16:14:47.034Z,51.70
2022-10-28T16:17:17.088Z,51.87
2022-10-28T16:19:51.935Z,51.96
2022-10-28T16:22:22.241Z,52.08
2022-10-28T16:24:52.061Z,52.52
2022-10-28T16:27:21.909Z,52.23
2022-10-28T16:29:50.563Z,52.21
2022-10-28T16:32:23.418Z,52.54
2022-10-28T16:34:51.443Z,52.36
2022-10-28T16:37:24.186Z,52.61
2022-10-28T16:39:52.248Z,53.18
2022-10-28T16:42:21.527Z,53.20
2022-10-28T16:44:50.184Z,53.20
2022-10-28T16:47:19.623Z,53.02
2022-10-28T16:49:52.559Z,52.93
2022-10-28T16:52:27.334Z,52.83
2022-10-28T16:54:55.975Z,53.04
2022-10-28T16:59:57.594Z,53.33
2022-10-28T17:02:28.304Z,53.60
2022-10-28T17:04:56.927Z,53.75
2022-10-28T17:07:26.983Z,53.18
2022-10-28T17:09:55.120Z,53.07
2022-10-28T17:12:25.003Z,53.17
2022-10-28T17:14:53.558Z,53.47
2022-10-28T17:17:21.618Z,53.49
2022-10-28T17:19:49.790Z,53.46
2022-10-28T17:22:17.969Z,53.88
2022-10-28T17:24:47.596Z,54.12
2022-10-28T17:27:16.070Z,54.23
2022-10-28T17:29:44.135Z,54.91
2022-10-28T17:32:12.201Z,54.54
2022-10-28T17:34:40.332Z,54.19
2022-10-28T17:37:08.683Z,55.02
2022-10-28T17:39:36.857Z,54.42
2022-10-28T17:42:06.374Z,54.62
2022-10-28T17:44:34.496Z,54.35
2022-10-28T17:47:02.873Z,54.38
2022-10-28T17:49:32.680Z,54.79
2022-10-28T17:52:00.783Z,54.57
2022-10-28T17:54:29.616Z,55.49
2022-10-28T17:56:57.676Z,55.61
2022-10-28T17:59:27.096Z,55.33
2022-10-28T18:01:55.483Z,55.10
2022-10-28T18:04:26.215Z,55.26
2022-10-28T18:06:55.492Z,55.49
2022-10-28T18:09:23.736Z,55.37
2022-10-28T18:11:52.141Z,55.44
2022-10-28T18:14:21.053Z,55.15
2022-10-28T18:16:51.262Z,55.23
2022-10-28T18:19:19.264Z,55.79
2022-10-28T18:21:47.323Z,55.45
2022-10-28T18:24:15.437Z,55.39
2022-10-28T18:26:43.485Z,55.53
2022-10-28T18:29:13.149Z,56.02
2022-10-28T18:31:43.958Z,55.82
2022-10-28T18:34:13.413Z,55.77
2022-10-28T18:36:41.462Z,56.08
2022-10-28T18:39:09.522Z,56.00
2022-10-28T18:41:41.903Z,55.62
2022-10-28T18:44:17.105Z,55.97
2022-10-28T18:46:46.180Z,55.73
2022-10-28T18:49:15.564Z,55.54
2022-10-28T18:51:43.669Z,55.58
2022-10-28T18:54:11.668Z,55.65
2022-10-28T18:56:40.874Z,55.54
2022-10-28T18:59:10.672Z,56.39
2022-10-28T19:01:38.810Z,56.40
2022-10-28T19:04:06.909Z,55.80
2022-10-28T19:06:40.175Z,55.56
2022-10-28T19:09:08.589Z,55.28
2022-10-28T19:11:36.652Z,55.97
2022-10-28T19:14:06.838Z,56.42
2022-10-28T19:16:35.891Z,56.25
2022-10-28T19:19:05.927Z,56.24
2022-10-28T19:21:34.504Z,56.17
2022-10-28T19:24:05.368Z,56.29
2022-10-28T19:26:34.348Z,56.77
2022-10-28T19:29:02.463Z,56.86
2022-10-28T19:31:30.988Z,56.85
2022-10-28T19:33:58.991Z,56.93
2022-10-28T19:36:28.505Z,57.12
2022-10-28T19:38:57.753Z,56.54
2022-10-28T19:41:29.040Z,56.53
2022-10-28T19:43:59.072Z,56.06
2022-10-28T19:46:28.515Z,56.59
2022-10-28T19:48:58.201Z,56.92
2022-10-28T19:51:28.293Z,57.72
2022-10-28T19:53:57.819Z,57.46
2022-10-28T19:56:27.627Z,57.46
2022-10-28T19:58:57.679Z,57.58
2022-10-28T20:01:27.464Z,57.74
2022-10-28T20:03:56.808Z,57.26
2022-10-28T20:06:26.615Z,57.05
2022-10-28T20:08:54.608Z,57.13
2022-10-28T20:11:26.594Z,57.19
2022-10-28T20:13:58.014Z,57.05
2022-10-28T20:16:26.932Z,57.37
2022-10-28T20:18:55.652Z,57.38
2022-10-28T20:21:25.900Z,57.45
2022-10-28T20:23:55.736Z,57.58
2022-10-28T20:26:26.010Z,57.48
2022-10-28T20:28:54.130Z,57.16
2022-10-28T20:31:25.415Z,57.03
2022-10-28T20:33:55.109Z,57.46
2022-10-28T20:36:25.220Z,57.32
2022-10-28T20:38:56.801Z,57.51
2022-10-28T20:41:25.552Z,57.26
2022-10-28T20:43:54.200Z,57.35
2022-10-28T20:46:24.625Z,57.39
2022-10-28T20:48:54.323Z,57.67
2022-10-28T20:51:22.806Z,57.79
2022-10-28T20:53:50.941Z,58.15
2022-10-28T20:56:20.435Z,57.96
2022-10-28T20:58:48.967Z,58.06
2022-10-28T21:01:19.265Z,58.36
2022-10-28T21:03:49.405Z,58.45
2022-10-28T21:06:19.607Z,58.36
2022-10-28T21:08:47.606Z,58.35
2022-10-28T21:11:17.423Z,58.44
2022-10-28T21:13:46.736Z,58.36
2022-10-28T21:16:14.752Z,58.68
2022-10-28T21:18:42.722Z,58.61
2022-10-28T21:21:12.868Z,58.70
2022-10-28T21:23:41.144Z,58.94
2022-10-28T21:26:09.857Z,58.85
2022-10-28T21:28:37.883Z,58.92
2022-10-28T21:31:07.182Z,59.28
2022-10-28T21:33:36.689Z,59.48
2022-10-28T21:36:07.208Z,59.58
2022-10-28T21:38:36.903Z,59.53
2022-10-28T21:41:07.207Z,59.50
2022-10-28T21:43:36.911Z,59.46
2022-10-28T21:46:05.129Z,59.44
2022-10-28T21:48:34.372Z,59.78
2022-10-28T21:51:06.332Z,59.70
2022-10-28T21:53:39.108Z,59.79
2022-10-28T21:56:10.114Z,59.70
2022-10-28T21:58:42.329Z,59.76
2022-10-28T22:01:12.240Z,59.73
2022-10-28T22:03:40.691Z,59.58
2022-10-28T22:06:09.083Z,59.51
2022-10-28T22:08:38.473Z,59.45
2022-10-28T22:11:08.954Z,59.66
2022-10-28T22:13:37.340Z,60.05
2022-10-28T22:16:07.598Z,59.77
2022-10-28T22:18:37.498Z,59.52
2022-10-28T22:21:06.601Z,59.99
2022-10-28T22:23:34.844Z,60.01
2022-10-28T22:26:04.585Z,60.02
2022-10-28T22:28:32.840Z,59.92
2022-10-28T22:31:01.288Z,59.90
2022-10-28T22:33:29.558Z,59.96
2022-10-28T22:35:58.466Z,60.16
2022-10-28T22:38:26.537Z,60.38
2022-10-28T22:41:04.563Z,59.94
2022-10-28T22:43:32.809Z,60.18
2022-10-28T22:46:01.596Z,60.32
2022-10-28T22:48:30.439Z,60.54
2022-10-28T22:50:59.055Z,60.41
2022-10-28T22:53:27.562Z,60.32
2022-10-28T22:55:56.581Z,60.54
2022-10-28T22:58:27.385Z,60.31
2022-10-28T23:00:55.480Z,60.19
2022-10-28T23:03:23.509Z,60.34
2022-10-28T23:05:51.480Z,60.63
2022-10-28T23:08:19.525Z,60.58
2022-10-28T23:10:47.512Z,60.85
2022-10-28T23:13:15.543Z,61.38
2022-10-28T23:15:44.900Z,61.03
2022-10-28T23:18:12.896Z,61.12
2022-10-28T23:20:40.949Z,60.99
2022-10-28T23:23:08.917Z,60.93
2022-10-28T23:25:36.921Z,60.87
2022-10-28T23:28:06.373Z,60.77
2022-10-28T23:30:34.381Z,60.74
2022-10-28T23:33:03.726Z,60.76
2022-10-28T23:35:31.754Z,60.74
2022-10-28T23:38:00.700Z,60.82
2022-10-28T23:40:28.760Z,60.72
2022-10-28T23:42:56.985Z,60.70
2022-10-28T23:45:25.324Z,60.79
2022-10-28T23:47:53.311Z,60.84
2022-10-28T23:50:22.730Z,60.89
2022-10-28T23:52:54.868Z,60.95
2022-10-28T23:55:23.128Z,61.34
2022-10-28T23:57:51.216Z,61.50
